Impacts METAR Board INFO
IDs:

KDCA - Washington/National, VA, US

Updated at: 1011 UTC 19 Nov 2017
Potential Impact None Slight Moderate High
Time18/22Z 18/23Z 19/00Z 19/01Z 19/02Z 19/03Z 19/04Z 19/05Z 19/06Z 19/07Z 19/08Z 19/09Z 19/10Z
VIS10 10 10 10 10 10 10 10 10 10 10 10 10
CIG170 140 150 170 160 160 230 140 44 41 140 80 50
CoverOVCOVCOVCOVCOVCOVCOVCOVCOVCOVCOVCOVCOVC
FltCatVFRVFRVFRVFRVFRVFRVFRVFRVFRVFRVFRVFRVFR
WX-----------------RA-RA-----RA
WDir180190180190190200200190200200180210260
WSpd9 10 13 11 13 19 16 13 20 10 13 16 11
WGst-- -- -- -- 20 27 24 21 24 -- 21 23 --
Raw hourly METARs
KDCA 182152Z 18009KT 10SM SCT100 OVC170 12/07 A2960 RMK AO2 RAE2057 SLP023 P0000 T01220067
KDCA 182252Z 19010KT 10SM OVC140 13/06 A2959 RMK AO2 SLP021 T01280061
KDCA 182352Z 18013KT 10SM OVC150 14/07 A2955 RMK AO2 SLP007 60000 T01390072 10156 20122 58027
KDCA 190052Z 19011KT 10SM OVC170 14/08 A2953 RMK AO2 SLP999 T01390078
KDCA 190152Z 19013G20KT 10SM OVC160 16/09 A2950 RMK AO2 SLP990 T01610089
KDCA 190252Z 20019G27KT 10SM OVC160 17/09 A2948 RMK AO2 PK WND 19034/0213 SLP981 T01720094 58026
KDCA 190352Z 20016G24KT 10SM OVC230 17/10 A2944 RMK AO2 PK WND 21026/0255 SLP971 T01670100
KDCA 190452Z 19013G21KT 10SM FEW090 BKN140 OVC230 17/11 A2942 RMK AO2 PK WND 20026/0353 SLP961 T01720106 401720028
KDCA 190552Z COR 20020G24KT 10SM -RA BKN044 BKN060 OVC110 18/11 A2939 RMK AO2 RAB12 SLP953 P0000 60000 T01780106 10178 20133 56027
KDCA 190652Z 20010KT 10SM -RA OVC041 16/13 A2939 RMK AO2 SLP950 P0004 T01560128
KDCA 190752Z 18013G21KT 10SM FEW100 OVC140 14/13 A2932 RMK AO2 RAE22 SLP927 P0001 T01440128
KDCA 190852Z 21016G23KT 10SM BKN080 OVC200 16/13 A2933 RMK AO2 PK WND 20026/0821 RAB17E29 SLP933 P0000 60005 T01610128 55021
KDCA 190952Z 26011KT 10SM -RA FEW023 BKN050 OVC070 16/13 A2939 RMK AO2 RAB03 SLP954 P0002 T01610133